Brookfield, Illinois
Current Conditions -  °F | °C
As of 4:53 AM on Friday 24 Oct 2014 (Local Time) from KMDW Reporting Station
Overcast Overcast  
Wind Chill: 55°   Ceiling: 2400
Heat Index: 55°   Visibility: 10mi
Dew Point: 46°   Wind: 3mph
Humidity: 72%   Direction: 200°SSW
Pressure: 30.05"   Gusts: NA
Location:  41.82°N, 87.84°W
Report Text: KMDW 240953Z 20003KT 10SM OVC024 13/08 A3005 RMK AO2 SLP175 T01280078
Loading
Personal Weather Stations






























Interactive Weather Map
Tropical Storm Tracking
New forecast layout! Learn more

10-Day Weather Forecast

Advertisements
Track Severe Weather on mobile